Time;durP1;ratioP1;P1;durP2;ratioP2;P2;SDS_P1;SDS_P2;PMS_P1;PMS_P2;Temp;Humidity;BMP_temperature;BMP_pressure;BME280_temperature;BME280_humidity;BME280_pressure;Samples;Min_cycle;Max_cycle;Signal;HPM_P1;HPM_P2
2023/06/21 00:00:00;;;;;;;124.15;118.40;;;;;;;28.69;39.45;101085.38;5033578;28;20087;-68
2023/06/21 00:02:28;;;;;;;128.23;122.25;;;;;;;28.65;39.37;101095.63;5033097;28;20541;-69
2023/06/21 00:04:55;;;;;;;129.85;123.82;;;;;;;28.63;39.36;101109.06;5033507;28;20112;-68
2023/06/21 00:07:23;;;;;;;127.50;121.63;;;;;;;28.61;39.33;101105.03;5033008;28;20540;-69
2023/06/21 00:09:49;;;;;;;127.38;121.60;;;;;;;28.56;39.52;101106.09;5033391;28;20486;-69
2023/06/21 00:12:14;;;;;;;131.32;125.03;;;;;;;28.54;39.37;101107.63;5032399;28;20048;-69
2023/06/21 00:14:39;;;;;;;128.23;122.13;;;;;;;28.51;39.48;101111.91;5033548;28;20095;-69
2023/06/21 00:17:05;;;;;;;126.47;120.60;;;;;;;28.48;39.43;101116.22;5032745;28;20053;-69
2023/06/21 00:19:30;;;;;;;125.72;119.93;;;;;;;28.46;39.85;101112.19;5033474;28;20474;-70
2023/06/21 00:21:57;;;;;;;124.72;119.10;;;;;;;28.43;39.38;101113.66;5032686;28;20116;-69
2023/06/21 00:24:23;;;;;;;126.22;120.47;;;;;;;28.39;39.58;101109.97;5032962;28;20496;-69
2023/06/21 00:26:48;;;;;;;123.43;117.40;;;;;;;28.37;39.62;101114.25;5032247;28;20037;-69
2023/06/21 00:29:14;;;;;;;125.13;119.32;;;;;;;28.34;39.63;101112.19;5032865;28;20029;-69
2023/06/21 00:31:39;;;;;;;132.65;126.50;;;;;;;28.32;39.89;101108.97;5033074;28;20038;-69
2023/06/21 00:34:05;;;;;;;126.25;120.30;;;;;;;28.29;39.74;101112.47;5030997;28;20075;-69
2023/06/21 00:36:30;;;;;;;125.35;119.45;;;;;;;28.27;39.79;101121.13;5032706;28;20525;-69
2023/06/21 00:38:55;;;;;;;130.18;123.72;;;;;;;28.23;39.80;101132.16;5031518;28;20538;-69
2023/06/21 00:41:21;;;;;;;127.05;120.97;;;;;;;28.21;39.67;101133.69;5031899;28;20040;-69
2023/06/21 00:43:46;;;;;;;126.10;120.10;;;;;;;28.18;39.76;101137.97;5033738;28;20080;-68
2023/06/21 00:46:11;;;;;;;125.15;118.93;;;;;;;28.15;39.60;101135.91;5031616;28;20044;-69
2023/06/21 00:48:37;;;;;;;128.07;121.88;;;;;;;28.12;40.06;101138.56;5032897;28;20061;-69
2023/06/21 00:51:02;;;;;;;124.35;118.45;;;;;;;28.09;39.73;101137.28;5033506;28;20037;-69
2023/06/21 00:53:30;;;;;;;121.88;116.03;;;;;;;28.07;39.87;101138.81;5030512;28;20034;-69
2023/06/21 00:55:56;;;;;;;122.35;116.15;;;;;;;28.03;39.83;101133.16;5032455;28;20033;-69
2023/06/21 00:58:21;;;;;;;126.50;120.50;;;;;;;28.00;39.84;101134.69;5032115;28;20034;-69
2023/06/21 01:00:49;;;;;;;125.25;119.30;;;;;;;27.98;40.18;101136.19;5032703;28;20026;-69
2023/06/21 01:03:16;;;;;;;125.93;120.13;;;;;;;27.96;40.38;101135.72;5031949;28;20037;-69
2023/06/21 01:05:43;;;;;;;125.03;118.95;;;;;;;27.92;40.06;101132.84;5032184;28;20064;-69
2023/06/21 01:08:29;;;;;;;122.22;116.50;;;;;;;27.90;40.33;101135.16;5032117;28;20040;-69
2023/06/21 01:10:55;;;;;;;124.63;118.72;;;;;;;27.88;40.28;101137.47;5031668;28;20116;-69
2023/06/21 01:13:29;;;;;;;129.38;123.18;;;;;;;27.84;40.37;101136.56;5030832;28;20494;-69
2023/06/21 01:16:05;;;;;;;123.43;117.47;;;;;;;27.81;40.42;101129.75;5032089;28;20053;-69
2023/06/21 01:18:32;;;;;;;126.47;120.38;;;;;;;27.80;40.20;101130.06;5031642;28;20038;-69
2023/06/21 01:21:03;;;;;;;123.75;117.80;;;;;;;27.76;40.12;101132.72;5032029;28;20028;-69
2023/06/21 01:23:39;;;;;;;121.72;115.88;;;;;;;27.74;40.28;101134.25;5031253;28;20029;-69
2023/06/21 01:26:37;;;;;;;120.75;114.65;;;;;;;27.72;40.11;101133.78;5032956;28;20045;-69
2023/06/21 01:29:14;;;;;;;123.80;117.90;;;;;;;27.68;40.34;101135.66;5032212;28;20079;-69
2023/06/21 01:31:42;;;;;;;119.70;113.95;;;;;;;27.65;39.67;101133.59;5012787;28;20108;-69
2023/06/21 01:34:09;;;;;;;120.45;114.53;;;;;;;27.62;40.27;101135.88;5012447;28;20434;-69
2023/06/21 01:36:39;;;;;;;123.68;117.28;;;;;;;27.61;40.35;101141.78;5012359;28;20118;-69
2023/06/21 01:39:10;;;;;;;117.30;111.70;;;;;;;27.58;40.35;101134.97;5012611;28;20034;-69
2023/06/21 01:41:37;;;;;;;121.30;115.10;;;;;;;27.56;40.48;101139.25;5012731;28;20038;-68
2023/06/21 01:44:04;;;;;;;119.80;113.90;;;;;;;27.54;40.67;101145.16;5012360;28;20061;-69
2023/06/21 01:46:29;;;;;;;120.20;114.10;;;;;;;27.52;40.29;101144.69;5011892;28;20557;-69
2023/06/21 01:48:58;;;;;;;120.20;114.28;;;;;;;27.49;40.85;101153.69;5027787;28;20124;-68
2023/06/21 01:51:24;;;;;;;125.20;119.07;;;;;;;27.47;40.40;101152.41;5014620;28;20299;-68
2023/06/21 01:53:50;;;;;;;121.80;115.75;;;;;;;27.46;40.68;101142.50;5030999;28;20041;-69
2023/06/21 01:56:18;;;;;;;120.90;114.80;;;;;;;27.42;40.61;101142.38;5031997;28;20026;-68
2023/06/21 01:58:46;;;;;;;121.97;115.97;;;;;;;27.40;40.69;101147.47;5031296;28;20029;-68
2023/06/21 02:01:12;;;;;;;121.15;115.35;;;;;;;27.36;40.69;101150.13;5011797;28;20033;-68
2023/06/21 02:03:43;;;;;;;119.90;113.90;;;;;;;27.35;40.57;101158.81;5012256;28;20033;-68
2023/06/21 02:06:11;;;;;;;121.72;115.80;;;;;;;27.32;40.58;101160.31;5012143;28;20058;-68
2023/06/21 02:08:37;;;;;;;120.63;114.72;;;;;;;27.31;40.78;101152.31;5012178;28;20033;-68
2023/06/21 02:16:13;;;;;;;124.03;117.68;;;;;;;27.23;40.43;101167.91;5067248;23;20069;-70
2023/06/21 02:18:39;;;;;;;117.45;111.43;;;;;;;27.20;40.55;101163.06;4994875;28;20039;-69
2023/06/21 02:21:04;;;;;;;120.20;114.40;;;;;;;27.19;40.72;101175.31;4992375;28;20469;-69
2023/06/21 02:23:30;;;;;;;120.18;114.10;;;;;;;27.15;40.51;101186.25;4992669;28;20393;-69
2023/06/21 02:25:55;;;;;;;121.00;115.20;;;;;;;27.14;40.56;101195.75;5001143;28;20030;-69
2023/06/21 02:28:20;;;;;;;122.28;116.00;;;;;;;27.11;41.00;101193.63;5011143;28;20030;-69
2023/06/21 02:30:46;;;;;;;118.30;112.00;;;;;;;27.08;40.87;101194.31;5011716;28;20641;-69
2023/06/21 02:33:11;;;;;;;119.57;113.25;;;;;;;27.08;40.76;101180.47;5010705;28;20033;-69
2023/06/21 02:35:37;;;;;;;118.32;112.40;;;;;;;27.05;40.81;101180.34;5011575;28;20092;-69
2023/06/21 02:38:02;;;;;;;118.85;112.97;;;;;;;27.02;40.94;101181.06;5010855;28;20116;-69
2023/06/21 02:40:28;;;;;;;119.20;113.30;;;;;;;26.99;40.77;101182.53;5011635;28;20108;-69
2023/06/21 02:42:53;;;;;;;120.70;114.20;;;;;;;26.96;40.66;101189.59;5011374;28;20068;-69
2023/06/21 02:45:18;;;;;;;121.10;114.72;;;;;;;26.95;40.65;101184.38;5023749;28;20046;-69
2023/06/21 02:47:44;;;;;;;120.03;114.03;;;;;;;26.94;40.94;101193.84;5008413;28;20540;-69
2023/06/21 02:50:10;;;;;;;120.30;114.25;;;;;;;26.91;41.01;101206.44;5012925;28;20401;-69
2023/06/21 02:52:35;;;;;;;118.95;112.95;;;;;;;26.90;41.11;101209.53;5015424;28;20473;-68
2023/06/21 02:55:07;;;;;;;118.25;112.25;;;;;;;26.88;40.76;101203.53;5015278;28;20036;-69
2023/06/21 02:57:33;;;;;;;117.85;112.05;;;;;;;26.86;40.83;101208.59;5014600;28;20104;-69
2023/06/21 02:59:59;;;;;;;117.30;111.28;;;;;;;26.83;40.95;101218.41;5014859;28;20038;-69
2023/06/21 03:02:33;;;;;;;114.53;108.75;;;;;;;26.80;41.14;101213.56;5014739;28;20022;-69
2023/06/21 03:05:00;;;;;;;108.57;103.30;;;;;;;26.78;41.29;101221.41;5015118;28;20103;-69
2023/06/21 03:07:27;;;;;;;111.15;105.70;;;;;;;26.75;40.92;101225.66;5014456;28;20041;-69
2023/06/21 03:09:53;;;;;;;111.40;105.85;;;;;;;26.73;41.22;101230.72;5014418;28;20042;-69
2023/06/21 03:12:19;;;;;;;114.65;108.75;;;;;;;26.72;41.22;101234.66;5013765;28;20457;-69
2023/06/21 03:14:44;;;;;;;111.72;106.18;;;;;;;26.70;40.91;101230.59;5014607;28;20046;-69
2023/06/21 03:17:10;;;;;;;111.85;106.10;;;;;;;26.68;41.16;101232.91;5013805;28;20038;-69
2023/06/21 03:19:35;;;;;;;111.05;105.43;;;;;;;26.65;40.92;101237.16;5014908;28;20117;-69
2023/06/21 03:22:00;;;;;;;112.35;106.63;;;;;;;26.65;40.93;101241.91;5014840;28;20038;-70
2023/06/21 03:24:32;;;;;;;111.72;106.03;;;;;;;26.62;41.19;101243.41;5014467;28;20370;-69
2023/06/21 03:26:58;;;;;;;111.85;106.05;;;;;;;26.60;41.15;101245.69;5013383;28;20469;-69
2023/06/21 03:29:24;;;;;;;114.10;108.20;;;;;;;26.58;41.01;101239.66;5014265;28;20034;-69
2023/06/21 03:31:49;;;;;;;114.25;108.55;;;;;;;26.56;41.29;101247.53;5014454;28;20026;-69
2023/06/21 03:34:15;;;;;;;113.07;107.07;;;;;;;26.54;41.10;101253.41;5013546;28;20069;-69
2023/06/21 03:36:40;;;;;;;114.43;108.50;;;;;;;26.52;40.87;101252.09;5014358;28;20385;-69
2023/06/21 03:39:06;;;;;;;115.57;109.70;;;;;;;26.50;41.50;101248.84;5014664;28;20061;-69
2023/06/21 03:41:32;;;;;;;111.75;106.05;;;;;;;26.48;41.17;101254.72;5013647;28;20038;-69
2023/06/21 03:43:57;;;;;;;112.85;107.07;;;;;;;26.46;41.53;101259.81;5013763;28;20030;-70
2023/06/21 03:46:23;;;;;;;111.30;105.20;;;;;;;26.45;41.11;101251.81;5013964;28;20041;-69
2023/06/21 03:48:51;;;;;;;112.32;106.68;;;;;;;26.43;41.26;101265.19;5014404;28;20614;-69
2023/06/21 03:51:17;;;;;;;113.00;107.22;;;;;;;26.41;41.31;101259.16;5012659;28;20079;-70
2023/06/21 03:53:42;;;;;;;112.00;106.38;;;;;;;26.39;41.41;101258.72;5014130;28;20030;-69
2023/06/21 03:56:08;;;;;;;112.15;106.43;;;;;;;26.37;41.65;101264.59;5013767;28;20034;-69
2023/06/21 03:58:33;;;;;;;115.82;109.88;;;;;;;26.36;41.27;101267.69;5013745;28;20037;-69
2023/06/21 04:00:59;;;;;;;111.85;105.90;;;;;;;26.33;41.55;101280.25;5013561;28;20393;-68
2023/06/21 04:03:24;;;;;;;117.57;111.18;;;;;;;26.31;41.86;101268.72;5012907;28;20462;-69
2023/06/21 04:05:49;;;;;;;111.57;105.90;;;;;;;26.30;41.68;101278.16;5013743;28;20069;-69
2023/06/21 04:08:15;;;;;;;115.93;110.07;;;;;;;26.28;41.89;101283.22;5013588;28;20471;-69
2023/06/21 04:10:41;;;;;;;109.00;103.35;;;;;;;26.26;41.86;101278.03;5013891;28;20041;-69
2023/06/21 04:13:07;;;;;;;112.68;106.88;;;;;;;26.24;41.57;101285.06;5013835;28;20441;-68
2023/06/21 04:15:33;;;;;;;112.00;105.95;;;;;;;26.23;41.96;101291.72;5012395;28;20505;-68
2023/06/21 04:17:58;;;;;;;110.30;104.43;;;;;;;26.22;42.17;101290.09;5013400;28;20444;-68
2023/06/21 04:20:24;;;;;;;111.10;105.38;;;;;;;26.19;41.69;101283.28;5012175;28;20073;-68
2023/06/21 04:22:49;;;;;;;114.53;108.53;;;;;;;26.19;41.81;101285.25;5012839;28;20457;-68
2023/06/21 04:25:16;;;;;;;111.35;104.75;;;;;;;26.17;41.81;101290.31;5013061;28;20390;-72
2023/06/21 04:27:45;;;;;;;109.18;103.57;;;;;;;26.15;42.16;101290.63;5013514;28;20038;-68
2023/06/21 04:30:10;;;;;;;110.18;104.53;;;;;;;26.14;42.14;101297.31;5011328;28;20392;-68
2023/06/21 04:32:45;;;;;;;114.93;108.80;;;;;;;26.12;41.89;101296.84;5012971;28;20030;-68
2023/06/21 04:35:17;;;;;;;115.25;109.07;;;;;;;26.10;41.83;101304.66;5013204;28;20393;-68
2023/06/21 04:37:47;;;;;;;106.68;100.65;;;;;;;26.07;41.95;101300.63;5013023;28;20380;-68
2023/06/21 04:40:17;;;;;;;106.82;100.93;;;;;;;26.07;41.89;101310.88;5012779;28;20117;-69
2023/06/21 04:42:47;;;;;;;106.55;100.65;;;;;;;26.05;42.15;101310.41;5013224;28;20105;-68
2023/06/21 04:45:14;;;;;;;107.70;102.18;;;;;;;26.04;41.99;101314.31;5013518;28;20088;-68
2023/06/21 04:47:41;;;;;;;105.70;100.13;;;;;;;26.02;41.76;101311.06;5012440;28;20480;-68
2023/06/21 04:50:07;;;;;;;115.63;109.30;;;;;;;26.02;42.07;101311.06;5012742;28;20084;-68
2023/06/21 04:52:32;;;;;;;108.93;102.95;;;;;;;26.00;42.35;101310.59;5007903;28;20038;-68
2023/06/21 04:54:59;;;;;;;106.93;101.15;;;;;;;25.99;42.42;101308.97;4993717;28;20088;-68
2023/06/21 04:57:25;;;;;;;109.75;103.55;;;;;;;25.96;42.26;101310.47;4992942;28;20044;-69
2023/06/21 04:59:51;;;;;;;111.20;105.20;;;;;;;25.96;42.28;101309.66;4993296;28;20030;-68
2023/06/21 05:02:16;;;;;;;109.10;102.93;;;;;;;25.94;42.21;101307.19;4993755;28;20068;-68
2023/06/21 05:04:41;;;;;;;107.45;101.55;;;;;;;25.92;42.39;101315.03;4991789;28;20057;-68
2023/06/21 05:07:07;;;;;;;106.55;100.75;;;;;;;25.90;42.49;101326.44;4993502;28;20038;-68
2023/06/21 05:09:32;;;;;;;109.95;103.53;;;;;;;25.91;42.45;101327.25;4992930;28;20042;-68
2023/06/21 05:11:58;;;;;;;107.85;101.90;;;;;;;25.89;42.25;101319.28;4992424;28;20394;-69
2023/06/21 05:14:23;;;;;;;109.22;103.35;;;;;;;25.88;42.19;101322.38;4992686;28;20334;-68
2023/06/21 05:16:48;;;;;;;106.57;100.57;;;;;;;25.87;42.24;101320.75;4993265;28;20177;-68
2023/06/21 05:19:14;;;;;;;107.25;101.60;;;;;;;25.85;42.56;101328.56;4992100;28;20030;-68
2023/06/21 05:21:39;;;;;;;108.13;102.43;;;;;;;25.84;42.39;101332.47;4992721;28;20050;-68
2023/06/21 05:24:05;;;;;;;108.25;102.32;;;;;;;25.83;42.21;101328.06;4993096;28;20053;-69
2023/06/21 05:26:30;;;;;;;108.40;102.88;;;;;;;25.81;42.52;101333.94;4992536;28;20401;-69
2023/06/21 05:28:56;;;;;;;109.05;103.25;;;;;;;25.80;42.46;101340.59;4993215;28;20069;-68
2023/06/21 05:31:23;;;;;;;111.90;106.15;;;;;;;25.79;42.73;101350.06;4992257;28;20034;-69
2023/06/21 05:33:48;;;;;;;106.35;100.75;;;;;;;25.77;42.36;101352.34;4993119;28;20034;-69
2023/06/21 05:36:14;;;;;;;107.15;101.47;;;;;;;25.77;42.38;101359.81;4992645;28;20557;-68
2023/06/21 05:38:39;;;;;;;106.95;100.72;;;;;;;25.77;42.81;101362.59;4992651;28;20113;-68
2023/06/21 05:41:05;;;;;;;106.40;100.53;;;;;;;25.76;42.31;101367.31;4992907;28;20031;-69
2023/06/21 05:43:30;;;;;;;104.65;99.10;;;;;;;25.75;42.49;101371.22;4992383;28;20081;-68
2023/06/21 05:45:56;;;;;;;107.53;101.88;;;;;;;25.75;42.71;101365.69;4992813;28;20038;-68
2023/06/21 05:48:22;;;;;;;105.05;99.47;;;;;;;25.74;42.29;101374.34;4992689;28;20027;-74
2023/06/21 05:50:47;;;;;;;108.00;102.60;;;;;;;25.74;42.47;101377.91;4992672;28;20044;-69
2023/06/21 05:53:12;;;;;;;104.70;99.28;;;;;;;25.74;42.88;101386.22;5007066;28;20033;-69
2023/06/21 05:55:38;;;;;;;106.95;101.35;;;;;;;25.74;42.50;101386.22;5011668;28;20030;-68
2023/06/21 05:58:03;;;;;;;104.40;98.80;;;;;;;25.75;42.68;101387.00;5011972;28;20026;-69
2023/06/21 06:00:30;;;;;;;112.00;106.20;;;;;;;25.75;42.75;101390.59;5011572;28;20388;-69
2023/06/21 06:02:56;;;;;;;105.05;99.95;;;;;;;25.75;42.59;101395.31;5011201;28;20065;-68
2023/06/21 06:05:21;;;;;;;101.65;96.65;;;;;;;25.75;42.47;101398.09;5011499;28;20053;-69
2023/06/21 06:07:47;;;;;;;103.45;98.18;;;;;;;25.77;42.74;101401.34;5011499;28;20065;-68
2023/06/21 06:10:13;;;;;;;106.85;101.15;;;;;;;25.77;42.50;101395.81;5011614;28;20072;-68
2023/06/21 06:12:38;;;;;;;105.30;99.97;;;;;;;25.78;42.35;101398.25;5010884;28;20041;-68
2023/06/21 06:15:04;;;;;;;108.82;103.47;;;;;;;25.79;42.42;101404.59;5011296;28;20397;-69
2023/06/21 06:17:30;;;;;;;105.63;100.22;;;;;;;25.80;42.66;101400.66;5011099;28;20033;-69
2023/06/21 06:19:56;;;;;;;103.78;98.18;;;;;;;25.81;42.27;101405.09;5010960;28;20116;-69
2023/06/21 06:22:21;;;;;;;100.30;95.45;;;;;;;25.82;42.44;101407.50;5011520;28;20439;-68
2023/06/21 06:24:48;;;;;;;101.22;95.80;;;;;;;25.84;42.73;101412.72;5013875;28;20033;-68
2023/06/21 06:27:14;;;;;;;104.68;99.32;;;;;;;25.84;42.34;101413.53;5015454;28;20092;-69
2023/06/21 06:29:40;;;;;;;103.63;98.25;;;;;;;25.85;42.51;101412.41;5015067;28;20393;-69
2023/06/21 06:32:06;;;;;;;104.90;99.68;;;;;;;25.87;42.50;101423.16;5015469;28;20038;-68
2023/06/21 06:34:31;;;;;;;108.25;102.97;;;;;;;25.88;42.75;101431.13;5014324;28;20478;-70
2023/06/21 06:36:56;;;;;;;105.03;99.50;;;;;;;25.89;42.58;101431.94;5016092;28;20032;-69
2023/06/21 06:39:22;;;;;;;104.85;99.65;;;;;;;25.90;42.50;101439.94;5013532;28;20121;-69
2023/06/21 06:41:47;;;;;;;106.00;100.60;;;;;;;25.90;42.46;101439.94;5014995;28;20547;-68
2023/06/21 06:44:12;;;;;;;107.57;102.38;;;;;;;25.92;42.27;101447.88;5015370;28;20120;-69
2023/06/21 06:46:38;;;;;;;107.22;102.03;;;;;;;25.93;42.09;101446.75;5014460;28;20113;-69
2023/06/21 06:49:03;;;;;;;107.03;100.40;;;;;;;25.96;42.08;101450.81;5014996;28;20073;-68
2023/06/21 06:51:29;;;;;;;108.90;103.22;;;;;;;25.99;42.45;101455.69;5014632;28;20571;-69
2023/06/21 06:53:54;;;;;;;106.25;100.95;;;;;;;26.00;42.42;101463.66;5013733;28;20064;-68
2023/06/21 06:56:19;;;;;;;104.75;99.63;;;;;;;26.02;42.40;101457.78;5015090;28;20084;-69
2023/06/21 06:58:45;;;;;;;104.50;98.90;;;;;;;26.04;42.83;101461.84;5014637;28;20076;-69
2023/06/21 07:01:10;;;;;;;105.63;100.55;;;;;;;26.06;42.81;101467.06;5015139;28;20038;-68
2023/06/21 07:03:36;;;;;;;107.32;102.03;;;;;;;26.07;42.70;101463.94;5014803;28;20497;-68
2023/06/21 07:06:01;;;;;;;107.35;101.72;;;;;;;26.11;42.66;101469.66;5014427;28;20034;-68
2023/06/21 07:08:27;;;;;;;103.07;98.13;;;;;;;26.13;43.16;101461.81;5015115;28;20034;-69
2023/06/21 07:10:53;;;;;;;104.10;99.10;;;;;;;26.17;42.83;101460.03;5013796;28;20095;-68
2023/06/21 07:13:21;;;;;;;104.70;99.63;;;;;;;26.20;43.26;101469.63;5014999;28;20418;-69
2023/06/21 07:15:46;;;;;;;107.73;102.33;;;;;;;26.22;43.01;101470.91;5012758;28;20054;-68
2023/06/21 07:18:12;;;;;;;105.30;100.25;;;;;;;26.25;43.08;101463.91;5014433;28;20037;-68
2023/06/21 07:20:38;;;;;;;109.00;103.15;;;;;;;26.27;43.32;101467.16;5014271;28;20048;-68
2023/06/21 07:23:03;;;;;;;108.78;103.30;;;;;;;26.30;43.09;101474.78;5014729;28;20180;-70
2023/06/21 07:25:29;;;;;;;107.55;102.28;;;;;;;26.32;43.13;101476.09;5014574;28;20049;-75
2023/06/21 07:27:55;;;;;;;108.47;103.43;;;;;;;26.34;43.36;101479.34;5014574;28;20049;-68
2023/06/21 07:30:22;;;;;;;111.45;105.55;;;;;;;26.38;43.30;101476.69;5014468;28;20454;-69
2023/06/21 07:32:48;;;;;;;107.97;102.13;;;;;;;26.40;43.14;101471.66;5012936;28;20038;-68
2023/06/21 07:35:14;;;;;;;101.55;96.78;;;;;;;26.45;43.19;101476.19;5012930;28;20037;-69
2023/06/21 07:37:42;;;;;;;104.18;99.18;;;;;;;26.48;42.94;101481.88;5014016;28;20029;-68
2023/06/21 07:40:08;;;;;;;107.35;102.10;;;;;;;26.50;42.99;101474.03;5014357;28;20104;-69
2023/06/21 07:42:34;;;;;;;106.90;101.75;;;;;;;26.56;43.09;101488.56;5013260;28;20482;-68
2023/06/21 07:44:59;;;;;;;110.50;104.90;;;;;;;26.59;43.37;101481.56;5015078;28;20040;-68
2023/06/21 07:47:25;;;;;;;108.30;103.10;;;;;;;26.62;43.34;101484.47;5014132;28;20022;-69
2023/06/21 07:49:50;;;;;;;105.45;100.53;;;;;;;26.67;43.44;101483.47;5012892;28;20507;-68
2023/06/21 07:52:16;;;;;;;105.80;100.88;;;;;;;26.71;43.41;101493.56;5014231;28;20469;-68
2023/06/21 07:54:47;;;;;;;105.80;100.80;;;;;;;26.75;43.08;101497.25;5013677;28;20484;-68
2023/06/21 07:57:15;;;;;;;107.80;102.80;;;;;;;26.80;43.43;101495.44;5013849;28;20484;-68
2023/06/21 07:59:40;;;;;;;110.18;105.18;;;;;;;26.84;43.20;101501.94;5012644;28;20389;-69
2023/06/21 08:02:05;;;;;;;114.53;109.15;;;;;;;26.89;43.27;101502.56;5014027;28;20034;-69
2023/06/21 08:04:31;;;;;;;110.45;105.30;;;;;;;26.94;42.87;101504.34;5014748;28;20103;-68
2023/06/21 08:06:56;;;;;;;113.43;108.13;;;;;;;26.98;43.06;101510.81;5013560;28;20034;-67
2023/06/21 08:09:21;;;;;;;108.03;103.03;;;;;;;27.03;43.00;101502.31;5013902;28;20105;-69
2023/06/21 08:11:47;;;;;;;113.78;108.47;;;;;;;27.09;43.17;101506.53;5013221;28;20123;-69
2023/06/21 08:14:12;;;;;;;114.55;109.18;;;;;;;27.14;43.15;101506.34;5012925;28;20033;-68
2023/06/21 08:16:38;;;;;;;117.20;111.78;;;;;;;27.21;43.27;101513.31;5013216;28;20173;-69
2023/06/21 08:19:04;;;;;;;109.05;104.03;;;;;;;27.25;42.79;101503.19;5012967;28;20728;-69
2023/06/21 08:21:29;;;;;;;113.50;108.35;;;;;;;27.31;42.95;101504.59;5013734;28;20477;-69
2023/06/21 08:23:54;;;;;;;114.38;108.88;;;;;;;27.37;42.79;101508.81;5013645;28;20045;-68
2023/06/21 08:26:20;;;;;;;115.57;109.95;;;;;;;27.44;42.76;101508.25;5013202;28;20041;-69
2023/06/21 08:28:45;;;;;;;113.28;108.25;;;;;;;27.49;42.62;101506.06;5011800;28;20469;-69
2023/06/21 08:31:11;;;;;;;115.70;110.05;;;;;;;27.54;42.48;101505.88;5013404;28;20112;-69
2023/06/21 08:33:37;;;;;;;116.78;111.40;;;;;;;27.59;42.67;101505.69;5012527;28;20044;-70
2023/06/21 08:36:06;;;;;;;116.35;110.85;;;;;;;27.67;42.31;101517.03;5013422;28;20380;-68
2023/06/21 08:38:31;;;;;;;119.40;113.90;;;;;;;27.74;42.68;101514.50;5012866;28;20048;-69
2023/06/21 08:41:03;;;;;;;117.78;112.22;;;;;;;27.80;42.46;101513.16;5012653;28;20034;-68
2023/06/21 08:43:29;;;;;;;116.45;110.85;;;;;;;27.87;42.19;101521.78;5011926;28;20038;-68
2023/06/21 08:45:55;;;;;;;121.40;115.70;;;;;;;27.94;42.42;101518.44;5011877;28;20913;-68
2023/06/21 08:48:29;;;;;;;120.25;114.78;;;;;;;28.00;42.28;101519.84;5012178;28;20088;-69
2023/06/21 08:50:55;;;;;;;125.80;119.80;;;;;;;28.08;42.48;101524.50;5012569;28;20037;-68
2023/06/21 08:53:29;;;;;;;118.03;112.68;;;;;;;28.15;42.15;101532.25;5013043;28;20036;-68
2023/06/21 08:55:56;;;;;;;126.32;120.47;;;;;;;28.22;42.13;101540.84;5011902;28;20452;-67
2023/06/21 08:58:25;;;;;;;124.70;119.13;;;;;;;28.28;42.09;101539.47;5012679;28;20477;-68
2023/06/21 09:00:53;;;;;;;122.45;116.88;;;;;;;28.36;42.01;101534.97;5012980;28;20034;-68
2023/06/21 09:03:25;;;;;;;;;;;;;;;28.42;42.04;101531.59;5012334;28;20080;-68
2023/06/21 09:05:55;;;;;;;118.47;113.28;;;;;;;28.49;41.47;101542.19;5012660;28;19921;-68
2023/06/21 09:08:21;;;;;;;121.88;116.57;;;;;;;28.56;41.56;101544.41;5012758;28;20034;-68
2023/06/21 09:10:48;;;;;;;121.75;116.25;;;;;;;28.63;41.23;101536.31;5011512;28;22054;-68
2023/06/21 09:13:15;;;;;;;123.18;117.78;;;;;;;28.69;41.29;101540.47;5012202;28;20035;-68
2023/06/21 09:15:41;;;;;;;119.32;114.00;;;;;;;28.75;41.52;101544.63;5011064;28;20100;-68
2023/06/21 09:18:06;;;;;;;123.07;117.57;;;;;;;28.83;41.20;101546.50;5013249;28;20034;-68
2023/06/21 09:20:32;;;;;;;124.25;118.45;;;;;;;28.91;40.80;101551.13;5012403;28;20041;-68
2023/06/21 09:22:58;;;;;;;119.80;114.60;;;;;;;28.99;40.59;101546.59;5011765;28;20450;-69
2023/06/21 09:25:26;;;;;;;120.97;115.32;;;;;;;29.07;40.54;101544.91;4993187;28;20109;-68
2023/06/21 09:27:55;;;;;;;128.03;122.30;;;;;;;29.14;40.11;101542.34;4992423;28;20058;-68
2023/06/21 09:30:22;;;;;;;124.65;119.30;;;;;;;29.22;40.23;101546.94;4993198;28;20030;-67
2023/06/21 09:32:48;;;;;;;123.00;117.50;;;;;;;29.28;39.91;101545.56;4992254;28;20053;-68
2023/06/21 09:35:13;;;;;;;126.45;120.95;;;;;;;29.36;39.84;101543.81;4992924;28;20039;-68
2023/06/21 09:37:39;;;;;;;127.00;121.60;;;;;;;29.42;39.77;101550.72;4992370;28;20039;-73
2023/06/21 09:40:06;;;;;;;127.32;121.93;;;;;;;29.49;39.86;101558.50;4992739;28;20068;-68
2023/06/21 09:42:35;;;;;;;125.80;120.40;;;;;;;29.57;39.37;101557.53;4992644;28;20070;-70
2023/06/21 09:45:00;;;;;;;126.38;120.78;;;;;;;29.64;38.85;101554.97;4992714;28;20081;-68
2023/06/21 09:47:31;;;;;;;131.95;126.05;;;;;;;29.72;38.87;101544.88;4992481;28;20525;-68
2023/06/21 09:49:59;;;;;;;128.98;123.32;;;;;;;29.79;38.97;101556.22;4990982;28;20085;-69
2023/06/21 09:52:26;;;;;;;132.68;126.93;;;;;;;29.87;38.69;101548.88;4992919;28;20027;-68
2023/06/21 09:54:51;;;;;;;132.88;127.07;;;;;;;29.94;38.79;101561.03;4992122;28;20031;-68
2023/06/21 09:57:17;;;;;;;136.27;130.35;;;;;;;30.02;38.73;101561.22;4992132;28;20041;-68
2023/06/21 09:59:49;;;;;;;135.35;129.50;;;;;;;30.09;38.75;101556.66;4992162;28;20030;-68
2023/06/21 10:02:14;;;;;;;135.32;129.35;;;;;;;30.17;38.45;101566.81;4992799;28;20370;-68
2023/06/21 10:04:41;;;;;;;129.95;124.38;;;;;;;30.24;38.93;101573.75;4991994;28;20034;-69
2023/06/21 10:07:06;;;;;;;135.38;129.55;;;;;;;30.31;38.72;101576.75;4992328;28;20189;-69
2023/06/21 10:09:38;;;;;;;136.75;130.88;;;;;;;30.38;38.64;101577.75;4992623;28;20420;-68
2023/06/21 10:12:05;;;;;;;139.05;132.88;;;;;;;30.46;38.44;101578.75;4992246;28;20085;-69
2023/06/21 10:14:31;;;;;;;139.02;133.05;;;;;;;30.53;37.99;101589.28;4992430;28;20054;-69
2023/06/21 10:16:57;;;;;;;137.32;131.27;;;;;;;30.60;37.86;101572.75;4991742;28;20041;-69
2023/06/21 10:19:25;;;;;;;137.63;131.50;;;;;;;30.67;37.66;101578.50;4992719;28;20501;-69
2023/06/21 10:22:14;;;;;;;136.77;130.85;;;;;;;30.78;37.69;101589.91;4991821;28;20022;-69
2023/06/21 10:24:47;;;;;;;141.07;135.07;;;;;;;30.84;37.49;101588.50;4992058;28;20474;-69
2023/06/21 10:27:14;;;;;;;141.73;135.63;;;;;;;30.91;37.46;101588.66;4992389;28;20026;-69
2023/06/21 10:29:42;;;;;;;136.93;131.00;;;;;;;30.97;37.20;101592.81;4992309;28;20556;-69
2023/06/21 10:32:09;;;;;;;138.02;132.00;;;;;;;31.04;37.12;101592.97;4992172;28;20114;-68
2023/06/21 10:35:16;;;;;;;146.75;140.35;;;;;;;31.13;37.37;101594.78;4992066;28;20466;-68
2023/06/21 10:38:01;;;;;;;139.38;133.32;;;;;;;31.21;37.08;101588.97;4989777;28;20078;-69
2023/06/21 10:40:28;;;;;;;141.45;135.23;;;;;;;31.30;36.95;101593.53;4992225;28;20038;-69
2023/06/21 10:42:56;;;;;;;141.93;135.82;;;;;;;31.37;36.86;101602.09;4991621;28;20031;-69
2023/06/21 10:45:21;;;;;;;142.05;135.90;;;;;;;31.42;37.10;101608.22;4992303;28;20034;-68
2023/06/21 10:47:47;;;;;;;145.00;138.50;;;;;;;31.51;36.82;101604.44;4991578;28;20501;-70
2023/06/21 10:50:13;;;;;;;147.57;141.18;;;;;;;31.57;36.13;101600.16;4992018;28;20109;-68
2023/06/21 10:52:40;;;;;;;151.57;144.98;;;;;;;31.63;36.00;101607.91;4992093;28;20026;-68
2023/06/21 10:55:06;;;;;;;147.35;140.77;;;;;;;31.72;36.02;101606.88;4991959;28;20049;-69
2023/06/21 10:57:34;;;;;;;151.13;144.68;;;;;;;31.79;36.17;101609.81;4991501;28;20505;-68